createdAt,value
2023-03-06T00:00:00.071Z,11.13
2023-03-06T00:02:27.646Z,10.97
2023-03-06T00:04:55.080Z,9.30
2023-03-06T00:07:23.821Z,11.90
2023-03-06T00:09:51.307Z,11.37
2023-03-06T00:12:18.717Z,10.33
2023-03-06T00:14:46.072Z,12.07
2023-03-06T00:17:13.492Z,12.53
2023-03-06T00:19:40.912Z,11.43
2023-03-06T00:22:08.380Z,10.53
2023-03-06T00:24:37.188Z,12.17
2023-03-06T00:27:04.785Z,11.33
2023-03-06T00:29:32.149Z,11.30
2023-03-06T00:31:59.636Z,15.60
2023-03-06T00:34:27.054Z,11.13
2023-03-06T00:36:54.505Z,12.00
2023-03-06T00:39:22.056Z,10.70
2023-03-06T00:41:50.887Z,11.07
2023-03-06T00:44:18.369Z,10.73
2023-03-06T00:46:45.794Z,10.17
2023-03-06T00:49:13.223Z,10.73
2023-03-06T00:51:40.627Z,11.00
2023-03-06T00:54:08.036Z,9.40
2023-03-06T00:56:35.531Z,13.00
2023-03-06T00:59:04.270Z,9.30
2023-03-06T01:01:31.773Z,10.20
2023-03-06T01:03:59.163Z,15.13
2023-03-06T01:06:26.981Z,9.90
2023-03-06T01:08:54.365Z,12.30
2023-03-06T01:11:22.228Z,13.00
2023-03-06T01:13:49.840Z,10.43
2023-03-06T01:16:19.724Z,13.73
2023-03-06T01:18:47.382Z,12.57
2023-03-06T01:21:14.858Z,13.10
2023-03-06T01:23:42.317Z,14.43
2023-03-06T01:26:09.836Z,12.40
2023-03-06T01:28:37.472Z,12.70
2023-03-06T01:31:05.466Z,13.10
2023-03-06T01:33:34.259Z,13.27
2023-03-06T01:36:04.512Z,14.70
2023-03-06T01:38:31.936Z,10.93
2023-03-06T01:40:59.380Z,12.57
2023-03-06T01:43:28.027Z,12.80
2023-03-06T01:46:22.370Z,11.50
2023-03-06T01:48:53.131Z,17.30
2023-03-06T01:51:20.606Z,11.10
2023-03-06T01:53:48.517Z,12.00
2023-03-06T01:56:16.369Z,12.00
2023-03-06T01:58:44.467Z,14.47
2023-03-06T02:01:12.575Z,12.90
2023-03-06T02:03:40.440Z,12.30
2023-03-06T02:06:09.483Z,13.53
2023-03-06T02:08:37.173Z,18.03
2023-03-06T02:11:10.385Z,10.90
2023-03-06T02:13:38.212Z,12.77
2023-03-06T02:16:08.631Z,13.90
2023-03-06T02:18:36.896Z,11.77
2023-03-06T02:21:05.280Z,13.40
2023-03-06T02:23:37.356Z,11.73
2023-03-06T02:26:06.521Z,12.10
2023-03-06T02:28:33.942Z,16.03
2023-03-06T02:31:01.755Z,16.30
2023-03-06T02:33:30.430Z,16.50
2023-03-06T02:35:59.107Z,14.37
2023-03-06T02:38:28.996Z,16.50
2023-03-06T02:40:57.964Z,15.50
2023-03-06T02:43:32.642Z,16.10
2023-03-06T02:46:00.146Z,22.83
2023-03-06T02:48:27.647Z,16.93
2023-03-06T02:50:55.092Z,21.57
2023-03-06T02:53:23.010Z,18.13
2023-03-06T02:55:50.758Z,18.83
2023-03-06T02:58:19.670Z,18.10
2023-03-06T03:00:48.786Z,16.17
2023-03-06T03:03:16.278Z,21.10
2023-03-06T03:05:43.759Z,19.90
2023-03-06T03:08:11.591Z,18.10
2023-03-06T03:10:39.098Z,19.43
2023-03-06T03:13:06.567Z,18.60
2023-03-06T03:15:34.040Z,19.20
2023-03-06T03:18:02.809Z,20.60
2023-03-06T03:20:30.331Z,21.17
2023-03-06T03:22:57.829Z,22.10
2023-03-06T03:25:26.127Z,23.00
2023-03-06T03:27:53.561Z,21.83
2023-03-06T03:30:21.192Z,21.13
2023-03-06T03:32:48.632Z,22.00
2023-03-06T03:35:17.420Z,20.70
2023-03-06T03:37:44.947Z,22.60
2023-03-06T03:40:12.923Z,20.77
2023-03-06T03:42:40.403Z,24.27
2023-03-06T03:45:08.468Z,25.57
2023-03-06T03:47:35.916Z,24.57
2023-03-06T03:50:03.324Z,24.93
2023-03-06T03:52:32.241Z,25.90
2023-03-06T03:54:59.660Z,23.20
2023-03-06T03:57:27.042Z,22.97
2023-03-06T03:59:54.531Z,23.00
2023-03-06T04:02:22.503Z,23.60
2023-03-06T04:04:50.107Z,29.03
2023-03-06T04:07:17.700Z,28.90
2023-03-06T04:09:46.556Z,25.67
2023-03-06T04:12:13.965Z,27.33
2023-03-06T04:14:41.390Z,24.20
2023-03-06T04:17:09.215Z,25.13
2023-03-06T04:19:36.667Z,26.17
2023-03-06T04:22:04.095Z,28.90
2023-03-06T04:24:31.536Z,25.80
2023-03-06T04:27:00.358Z,27.57
2023-03-06T04:29:27.782Z,26.90
2023-03-06T04:31:55.201Z,26.10
2023-03-06T04:34:22.614Z,29.57
2023-03-06T04:36:50.072Z,30.70
2023-03-06T04:39:17.470Z,27.30
2023-03-06T04:41:44.867Z,28.33
2023-03-06T04:44:13.790Z,30.70
2023-03-06T04:46:41.215Z,28.87
2023-03-06T04:49:08.614Z,26.00
2023-03-06T04:51:36.969Z,29.77
2023-03-06T04:54:04.577Z,28.83
2023-03-06T04:56:32.027Z,25.97
2023-03-06T04:58:59.441Z,33.27
2023-03-06T05:01:28.282Z,28.53
2023-03-06T05:03:55.769Z,31.03
2023-03-06T05:06:23.197Z,28.97
2023-03-06T05:08:50.736Z,31.03
2023-03-06T05:11:18.161Z,27.57
2023-03-06T05:13:45.618Z,29.80
2023-03-06T05:16:13.071Z,28.10
2023-03-06T05:18:41.918Z,28.40
2023-03-06T05:21:09.453Z,30.57
2023-03-06T05:23:38.531Z,31.27
2023-03-06T05:26:06.602Z,31.80
2023-03-06T05:28:34.004Z,35.13
2023-03-06T05:31:03.391Z,31.13
2023-03-06T05:33:32.327Z,30.73
2023-03-06T05:36:01.113Z,35.03
2023-03-06T05:38:28.702Z,32.63
2023-03-06T05:40:56.258Z,30.23
2023-03-06T05:43:23.692Z,33.97
2023-03-06T05:45:52.995Z,34.50
2023-03-06T05:48:20.462Z,37.47
2023-03-06T05:50:55.537Z,32.83
2023-03-06T05:53:24.320Z,29.40
2023-03-06T05:55:56.542Z,31.87
2023-03-06T05:58:24.175Z,29.30
2023-03-06T06:00:52.167Z,26.93
2023-03-06T06:03:19.814Z,30.20
2023-03-06T06:05:47.331Z,30.57
2023-03-06T06:08:14.775Z,33.10
2023-03-06T06:10:44.054Z,31.27
2023-03-06T06:13:11.501Z,33.60
2023-03-06T06:15:39.346Z,28.87
2023-03-06T06:18:06.776Z,32.90
2023-03-06T06:20:35.475Z,29.07
2023-03-06T06:23:02.872Z,31.23
2023-03-06T06:25:30.335Z,34.23
2023-03-06T06:27:59.126Z,31.33
2023-03-06T06:30:26.626Z,33.43
2023-03-06T06:32:54.250Z,31.43
2023-03-06T06:35:21.704Z,30.73
2023-03-06T06:37:49.383Z,29.40
2023-03-06T06:40:17.047Z,32.30
2023-03-06T06:42:46.495Z,31.43
2023-03-06T06:45:15.261Z,32.83
2023-03-06T06:47:43.384Z,34.63
2023-03-06T06:50:13.613Z,29.00
2023-03-06T06:52:41.183Z,32.40
2023-03-06T06:55:09.060Z,32.63
2023-03-06T06:57:36.476Z,30.90
2023-03-06T07:00:04.663Z,32.60
2023-03-06T07:02:33.483Z,32.10
2023-03-06T07:05:04.593Z,30.90
2023-03-06T07:07:33.001Z,31.83
2023-03-06T07:10:01.078Z,31.30
2023-03-06T07:12:28.587Z,30.63
2023-03-06T07:14:56.439Z,30.83
2023-03-06T07:17:23.844Z,35.60
2023-03-06T07:19:53.034Z,31.73
2023-03-06T07:22:20.445Z,38.23
2023-03-06T07:24:47.887Z,31.10
2023-03-06T07:27:15.307Z,32.60
2023-03-06T07:29:43.279Z,32.87
2023-03-06T07:32:10.791Z,36.23
2023-03-06T07:34:38.228Z,38.63
2023-03-06T07:37:07.053Z,28.90
2023-03-06T07:39:34.483Z,33.53
2023-03-06T07:42:01.892Z,34.57
2023-03-06T07:44:29.330Z,28.60
2023-03-06T07:46:56.823Z,30.60
2023-03-06T07:49:24.317Z,28.80
2023-03-06T07:51:51.748Z,27.57
2023-03-06T07:54:20.474Z,31.80
2023-03-06T07:56:50.754Z,29.37
2023-03-06T07:59:18.190Z,27.87
2023-03-06T08:01:45.915Z,27.73
2023-03-06T08:04:13.402Z,26.43
2023-03-06T08:06:40.887Z,29.13
2023-03-06T08:09:08.914Z,28.27
2023-03-06T08:11:37.665Z,30.23
2023-03-06T08:14:05.143Z,30.13
2023-03-06T08:16:32.665Z,28.50
2023-03-06T08:19:00.153Z,31.23
2023-03-06T08:21:28.509Z,34.10
2023-03-06T08:23:56.144Z,30.87
2023-03-06T08:26:24.866Z,32.57
2023-03-06T08:28:53.885Z,27.07
2023-03-06T08:31:28.293Z,25.80
2023-03-06T08:33:56.303Z,28.30
2023-03-06T08:36:23.918Z,26.40
2023-03-06T08:38:51.695Z,26.73
2023-03-06T08:41:20.347Z,25.43
2023-03-06T08:43:47.981Z,29.17
2023-03-06T08:46:18.684Z,25.37
2023-03-06T08:48:47.723Z,26.50
2023-03-06T08:51:15.542Z,25.43
2023-03-06T08:53:44.251Z,25.70
2023-03-06T08:56:16.664Z,25.33
2023-03-06T08:58:44.094Z,27.13
2023-03-06T09:01:13.888Z,26.90
2023-03-06T09:03:42.714Z,28.40
2023-03-06T09:06:10.370Z,24.70
2023-03-06T09:08:38.291Z,23.70
2023-03-06T09:11:06.009Z,24.00
2023-03-06T09:13:33.426Z,22.13
2023-03-06T09:16:00.855Z,27.53
2023-03-06T09:18:29.393Z,25.00
2023-03-06T09:20:58.245Z,24.67
2023-03-06T09:23:25.635Z,23.77
2023-03-06T09:25:53.313Z,21.80
2023-03-06T09:28:20.717Z,18.87
2023-03-06T09:30:48.262Z,18.57
2023-03-06T09:33:16.277Z,20.13
2023-03-06T09:35:47.598Z,21.73
2023-03-06T09:38:16.368Z,17.27
2023-03-06T09:40:52.556Z,17.00
2023-03-06T09:43:22.385Z,19.80
2023-03-06T09:45:49.857Z,14.43
2023-03-06T09:48:17.688Z,14.40
2023-03-06T09:50:47.155Z,16.87
2023-03-06T09:53:29.441Z,15.17
2023-03-06T09:56:01.801Z,17.00
2023-03-06T09:58:30.977Z,15.67
2023-03-06T10:01:01.032Z,16.10
2023-03-06T10:03:30.257Z,14.93
2023-03-06T10:06:02.233Z,14.87
2023-03-06T10:08:31.554Z,14.60
2023-03-06T10:11:03.590Z,15.33
2023-03-06T10:13:36.336Z,16.30
2023-03-06T10:16:07.373Z,16.10
2023-03-06T10:18:38.308Z,14.33
2023-03-06T10:21:18.627Z,17.57
2023-03-06T10:23:51.527Z,17.40
2023-03-06T10:26:23.973Z,17.63
2023-03-06T10:28:54.450Z,17.90
2023-03-06T10:31:24.110Z,19.13
2023-03-06T10:33:55.267Z,18.57
2023-03-06T10:36:23.377Z,18.40
2023-03-06T10:38:50.794Z,20.30
2023-03-06T10:41:23.423Z,20.03
2023-03-06T10:44:05.727Z,20.57
2023-03-06T10:46:34.300Z,19.97
2023-03-06T10:49:02.502Z,16.03
2023-03-06T10:51:31.014Z,20.40
2023-03-06T10:53:59.313Z,16.93
2023-03-06T10:56:29.237Z,19.67
2023-03-06T10:59:07.530Z,16.53
2023-03-06T11:01:35.084Z,18.53
2023-03-06T11:04:15.846Z,16.90
2023-03-06T11:06:44.027Z,20.83
2023-03-06T11:09:15.425Z,19.43
2023-03-06T11:11:44.165Z,17.20
2023-03-06T11:14:15.347Z,20.07
2023-03-06T11:16:51.926Z,26.10
2023-03-06T11:19:20.453Z,23.60
2023-03-06T11:22:00.476Z,22.90
2023-03-06T11:24:28.177Z,24.50
2023-03-06T11:26:58.227Z,21.87
2023-03-06T11:29:28.537Z,21.70
2023-03-06T11:31:57.840Z,20.97
2023-03-06T11:34:30.474Z,20.00
2023-03-06T11:36:59.463Z,22.20
2023-03-06T11:39:30.005Z,19.37
2023-03-06T11:42:02.256Z,20.80
2023-03-06T11:44:35.573Z,20.13
2023-03-06T11:47:06.772Z,21.90
2023-03-06T11:49:40.500Z,22.73
2023-03-06T11:52:11.526Z,22.80
2023-03-06T11:54:38.929Z,19.23
2023-03-06T11:57:12.150Z,21.30
2023-03-06T12:00:00.512Z,18.20
2023-03-06T12:02:37.736Z,19.47
2023-03-06T12:05:13.180Z,22.30
2023-03-06T12:07:46.314Z,19.03
2023-03-06T12:10:18.081Z,17.90
2023-03-06T12:13:06.055Z,23.87
2023-03-06T12:15:41.591Z,19.40
2023-03-06T12:18:14.496Z,18.87
2023-03-06T12:20:46.492Z,20.70
2023-03-06T12:23:20.146Z,21.40
2023-03-06T12:25:51.247Z,17.40
2023-03-06T12:28:29.420Z,20.10
2023-03-06T12:31:23.720Z,27.60
2023-03-06T12:33:55.091Z,23.50
2023-03-06T12:36:36.509Z,17.47
2023-03-06T12:39:09.534Z,16.43
2023-03-06T12:41:56.320Z,15.17
2023-03-06T12:44:56.749Z,13.90
2023-03-06T12:47:27.727Z,16.90
2023-03-06T12:49:57.220Z,15.73
2023-03-06T12:52:30.314Z,15.47
2023-03-06T12:54:59.607Z,11.80
2023-03-06T12:57:27.034Z,13.27
2023-03-06T12:59:55.210Z,14.90
2023-03-06T13:02:47.051Z,15.03
2023-03-06T13:05:38.520Z,15.60
2023-03-06T13:08:23.311Z,14.90
2023-03-06T13:11:06.628Z,15.77
2023-03-06T13:13:35.349Z,15.60
2023-03-06T13:16:10.807Z,18.77
2023-03-06T13:18:50.817Z,19.80
2023-03-06T13:21:36.929Z,16.93
2023-03-06T13:24:05.045Z,21.67
2023-03-06T13:26:51.667Z,17.40
2023-03-06T13:29:36.999Z,13.07
2023-03-06T13:32:08.492Z,16.30
2023-03-06T13:34:38.614Z,14.47
2023-03-06T13:37:24.587Z,14.03
2023-03-06T13:40:10.930Z,16.17
2023-03-06T13:42:57.234Z,15.20
2023-03-06T13:45:25.509Z,14.63
2023-03-06T13:48:21.195Z,21.30
2023-03-06T13:50:44.704Z,14.17
2023-03-06T13:53:30.612Z,14.70
2023-03-06T13:56:03.256Z,15.00
2023-03-06T13:58:40.840Z,14.10
2023-03-06T14:01:17.165Z,15.57
2023-03-06T14:04:02.562Z,12.47
2023-03-06T14:06:48.642Z,10.73
2023-03-06T14:09:22.295Z,10.33
2023-03-06T14:11:51.440Z,11.43
2023-03-06T14:14:19.001Z,10.60
2023-03-06T14:16:50.761Z,10.87
2023-03-06T14:19:19.457Z,10.97
2023-03-06T14:21:48.503Z,12.87
2023-03-06T14:24:17.017Z,11.03
2023-03-06T14:26:47.230Z,11.20
2023-03-06T14:29:21.559Z,10.90
2023-03-06T14:31:50.159Z,11.27
2023-03-06T14:34:20.898Z,10.80
2023-03-06T14:36:49.308Z,15.27
2023-03-06T14:39:21.160Z,13.17
2023-03-06T14:41:50.290Z,13.90
2023-03-06T14:44:19.383Z,13.10
2023-03-06T14:46:47.421Z,12.07
2023-03-06T14:49:15.617Z,14.53
2023-03-06T14:51:44.282Z,12.60
2023-03-06T14:54:15.129Z,12.70
2023-03-06T14:56:43.012Z,14.13
2023-03-06T14:59:13.523Z,16.37
2023-03-06T15:01:41.762Z,11.77
2023-03-06T15:04:26.870Z,17.40
2023-03-06T15:06:55.043Z,15.17
2023-03-06T15:09:25.185Z,16.30
2023-03-06T15:11:56.450Z,14.00
2023-03-06T15:14:30.367Z,13.73
2023-03-06T15:16:57.798Z,13.80
2023-03-06T15:19:25.509Z,12.90
2023-03-06T15:21:53.010Z,16.63
2023-03-06T15:24:32.478Z,14.83
2023-03-06T15:27:01.531Z,12.70
2023-03-06T15:29:30.495Z,14.37
2023-03-06T15:32:14.204Z,14.23
2023-03-06T15:34:41.614Z,16.40
2023-03-06T15:37:20.525Z,18.63
2023-03-06T15:40:01.836Z,15.10
2023-03-06T15:42:29.357Z,13.67
2023-03-06T15:44:59.979Z,15.00
2023-03-06T15:47:27.520Z,19.83
2023-03-06T15:49:55.255Z,15.90
2023-03-06T15:52:23.289Z,15.07
2023-03-06T15:54:50.911Z,15.93
2023-03-06T15:57:21.095Z,16.57
2023-03-06T15:59:48.583Z,15.33
2023-03-06T16:02:18.999Z,15.10
2023-03-06T16:04:46.759Z,15.40
2023-03-06T16:07:14.370Z,15.90
2023-03-06T16:09:42.371Z,17.30
2023-03-06T16:12:14.472Z,14.30
2023-03-06T16:14:41.898Z,20.00
2023-03-06T16:17:11.552Z,19.77
2023-03-06T16:19:40.595Z,15.00
2023-03-06T16:22:08.453Z,16.03
2023-03-06T16:24:37.122Z,16.60
2023-03-06T16:27:05.003Z,15.50
2023-03-06T16:29:32.651Z,16.17
2023-03-06T16:32:01.606Z,17.50
2023-03-06T16:34:29.209Z,15.07
2023-03-06T16:36:58.614Z,15.77
2023-03-06T16:39:26.048Z,18.23
2023-03-06T16:41:53.465Z,17.73
2023-03-06T16:44:21.313Z,18.83
2023-03-06T16:46:50.076Z,18.40
2023-03-06T16:49:18.661Z,17.13
2023-03-06T16:51:46.189Z,20.50
2023-03-06T16:54:15.012Z,17.50
2023-03-06T16:56:42.533Z,17.07
2023-03-06T16:59:10.330Z,17.70
2023-03-06T17:01:37.801Z,17.40
2023-03-06T17:04:05.425Z,20.10
2023-03-06T17:06:32.829Z,18.03
2023-03-06T17:09:00.492Z,25.50
2023-03-06T17:11:29.467Z,18.80
2023-03-06T17:13:56.998Z,25.30
2023-03-06T17:16:24.419Z,20.43
2023-03-06T17:18:52.749Z,21.47
2023-03-06T17:21:20.212Z,20.67
2023-03-06T17:23:47.616Z,21.60
2023-03-06T17:26:15.804Z,20.23
2023-03-06T17:28:44.547Z,19.47
2023-03-06T17:31:12.559Z,17.67
2023-03-06T17:33:40.006Z,21.27
2023-03-06T17:36:08.084Z,20.37
2023-03-06T17:38:35.537Z,21.97
2023-03-06T17:41:04.320Z,21.60
2023-03-06T17:43:32.027Z,21.87
2023-03-06T17:46:04.301Z,23.73
2023-03-06T17:48:31.877Z,22.93
2023-03-06T17:50:59.437Z,24.03
2023-03-06T17:53:26.940Z,25.15
2023-03-06T17:55:54.388Z,25.43
2023-03-06T17:58:22.237Z,23.27
2023-03-06T18:00:49.702Z,26.63
2023-03-06T18:03:19.194Z,24.53
2023-03-06T18:05:46.688Z,23.40
2023-03-06T18:08:14.184Z,23.20
2023-03-06T18:10:42.539Z,25.00
2023-03-06T18:13:10.458Z,29.93
2023-03-06T18:15:39.616Z,26.60
2023-03-06T18:18:07.538Z,30.83
2023-03-06T18:20:40.953Z,31.63
2023-03-06T18:23:08.421Z,27.87
2023-03-06T18:25:36.111Z,25.53
2023-03-06T18:28:03.576Z,23.67
2023-03-06T18:30:31.022Z,26.30
2023-03-06T18:32:59.592Z,25.30
2023-03-06T18:35:27.030Z,24.37
2023-03-06T18:37:55.864Z,26.60
2023-03-06T18:40:24.866Z,25.70
2023-03-06T18:42:52.711Z,30.80
2023-03-06T18:45:20.425Z,28.63
2023-03-06T18:47:47.897Z,26.80
2023-03-06T18:50:17.754Z,23.47
2023-03-06T18:52:45.246Z,24.40
2023-03-06T18:55:14.159Z,31.03
2023-03-06T18:57:42.091Z,27.67
2023-03-06T19:00:10.018Z,25.30
2023-03-06T19:02:37.542Z,26.90
2023-03-06T19:05:06.338Z,22.47
2023-03-06T19:07:33.762Z,27.30
2023-03-06T19:10:01.540Z,24.53
2023-03-06T19:12:30.335Z,25.13
2023-03-06T19:14:58.860Z,23.20
2023-03-06T19:17:26.258Z,24.40
2023-03-06T19:19:55.062Z,27.73
2023-03-06T19:22:23.069Z,31.90
2023-03-06T19:24:50.733Z,27.73
2023-03-06T19:27:18.255Z,24.53
2023-03-06T19:29:47.032Z,24.67
2023-03-06T19:32:14.611Z,24.77
2023-03-06T19:34:42.081Z,25.77
2023-03-06T19:37:09.537Z,23.73
2023-03-06T19:39:37.241Z,28.60
2023-03-06T19:42:05.433Z,25.03
2023-03-06T19:44:32.851Z,19.50
2023-03-06T19:47:01.702Z,22.87
2023-03-06T19:49:29.140Z,28.63
2023-03-06T19:51:56.615Z,24.23
2023-03-06T19:54:25.497Z,20.60
2023-03-06T19:56:52.907Z,25.03
2023-03-06T19:59:20.521Z,21.77
2023-03-06T20:01:48.092Z,22.67
2023-03-06T20:04:17.051Z,23.43
2023-03-06T20:06:46.687Z,23.23
2023-03-06T20:09:14.163Z,22.20
2023-03-06T20:11:41.676Z,20.63
2023-03-06T20:14:09.824Z,20.77
2023-03-06T20:16:37.338Z,20.07
2023-03-06T20:19:04.963Z,27.53
2023-03-06T20:21:35.290Z,19.17
2023-03-06T20:24:02.759Z,19.63
2023-03-06T20:26:30.236Z,19.23
2023-03-06T20:28:57.919Z,18.80
2023-03-06T20:31:26.170Z,19.10
2023-03-06T20:33:54.419Z,18.33
2023-03-06T20:36:22.966Z,15.60
2023-03-06T20:38:52.053Z,16.93
2023-03-06T20:41:20.654Z,18.27
2023-03-06T20:43:48.131Z,18.10
2023-03-06T20:46:15.935Z,17.90
2023-03-06T20:48:44.251Z,18.77
2023-03-06T20:51:15.989Z,17.57
2023-03-06T20:53:43.548Z,19.60
2023-03-06T20:56:13.738Z,16.43
2023-03-06T20:58:41.215Z,16.40
2023-03-06T21:01:08.807Z,16.63
2023-03-06T21:03:36.245Z,15.97
2023-03-06T21:06:03.865Z,18.70
2023-03-06T21:08:32.201Z,16.40
2023-03-06T21:10:59.581Z,15.57
2023-03-06T21:13:28.300Z,15.67
2023-03-06T21:15:55.745Z,15.00
2023-03-06T21:18:23.197Z,16.50
2023-03-06T21:20:50.679Z,15.57
2023-03-06T21:23:18.096Z,15.40
2023-03-06T21:25:48.877Z,17.90
2023-03-06T21:28:16.579Z,17.40
2023-03-06T21:30:45.856Z,16.57
2023-03-06T21:33:13.603Z,19.47
2023-03-06T21:35:41.807Z,21.03
2023-03-06T21:38:09.589Z,20.47
2023-03-06T21:40:37.229Z,18.33
2023-03-06T21:43:05.038Z,18.53
2023-03-06T21:45:32.601Z,23.80
2023-03-06T21:48:01.656Z,24.13
2023-03-06T21:50:29.124Z,19.97
2023-03-06T21:52:57.443Z,18.83
2023-03-06T21:55:24.930Z,21.30
2023-03-06T21:57:52.549Z,22.50
2023-03-06T22:00:20.720Z,19.10
2023-03-06T22:02:48.246Z,18.07
2023-03-06T22:05:17.071Z,18.93
2023-03-06T22:07:44.547Z,21.60
2023-03-06T22:10:14.212Z,18.97
2023-03-06T22:12:41.682Z,20.10
2023-03-06T22:15:10.409Z,20.60
2023-03-06T22:17:39.585Z,20.77
2023-03-06T22:20:07.480Z,19.87
2023-03-06T22:22:36.079Z,20.57
2023-03-06T22:25:05.767Z,22.33
2023-03-06T22:27:33.218Z,21.03
2023-03-06T22:30:00.654Z,22.67
2023-03-06T22:32:28.140Z,23.63
2023-03-06T22:34:55.764Z,22.33
2023-03-06T22:37:23.236Z,23.00
2023-03-06T22:39:50.806Z,22.13
2023-03-06T22:42:19.582Z,23.83
2023-03-06T22:44:47.121Z,25.63
2023-03-06T22:47:14.557Z,21.40
2023-03-06T22:49:41.959Z,21.90
2023-03-06T22:52:09.841Z,22.73
2023-03-06T22:54:37.281Z,22.27
2023-03-06T22:57:04.794Z,24.90
2023-03-06T22:59:33.565Z,26.87
2023-03-06T23:02:01.177Z,23.50
2023-03-06T23:04:28.738Z,22.43
2023-03-06T23:06:56.385Z,21.50
2023-03-06T23:09:23.868Z,20.00
2023-03-06T23:11:51.348Z,20.77
2023-03-06T23:14:19.446Z,22.40
2023-03-06T23:16:48.242Z,22.67
2023-03-06T23:19:15.701Z,21.70
2023-03-06T23:21:43.211Z,18.50
2023-03-06T23:24:10.667Z,22.63
2023-03-06T23:26:38.116Z,20.00
2023-03-06T23:29:05.579Z,20.33
2023-03-06T23:31:32.955Z,23.27
2023-03-06T23:34:02.783Z,21.43
2023-03-06T23:36:31.198Z,21.60
2023-03-06T23:38:58.676Z,17.43
2023-03-06T23:41:26.396Z,19.50
2023-03-06T23:43:55.295Z,19.30
2023-03-06T23:46:23.178Z,21.10
2023-03-06T23:48:50.711Z,19.97
2023-03-06T23:51:20.931Z,16.83
2023-03-06T23:53:49.034Z,16.87
2023-03-06T23:56:16.495Z,18.07
2023-03-06T23:58:45.437Z,18.37
